Time;durP1;ratioP1;P1;durP2;ratioP2;P2;SDS_P1;SDS_P2;PMS_P1;PMS_P2;Temp;Humidity;BMP_temperature;BMP_pressure;BME280_temperature;BME280_humidity;BME280_pressure;Samples;Min_cycle;Max_cycle;Signal;HPM_P1;HPM_P2
2023/10/12 00:01:23;;;;;;;0.57;0.57;;;;;;;;;;4996436;28;20678;-88
2023/10/12 00:03:54;;;;;;;0.60;0.60;;;;;;;;;;5007142;28;20169;-88
2023/10/12 00:06:20;;;;;;;0.50;0.50;;;;;;;;;;5010027;28;20204;-88
2023/10/12 00:08:45;;;;;;;0.50;0.50;;;;;;;;;;5012614;28;20192;-88
2023/10/12 00:11:19;;;;;;;0.50;0.50;;;;;;;;;;4998574;28;20197;-88
2023/10/12 00:13:47;;;;;;;0.50;0.50;;;;;;;;;;4996537;28;20192;-89
2023/10/12 00:16:18;;;;;;;0.60;0.60;;;;;;;;;;4996086;28;20506;-89
2023/10/12 00:18:45;;;;;;;0.50;0.50;;;;;;;;;;4978689;28;20181;-88
2023/10/12 00:21:15;;;;;;;0.50;0.50;;;;;;;;;;4995592;28;20197;-89
2023/10/12 00:23:47;;;;;;;0.60;0.60;;;;;;;;;;4995818;28;20202;-88
2023/10/12 00:26:13;;;;;;;0.40;0.40;;;;;;;;;;4994826;28;20205;-87
2023/10/12 00:28:39;;;;;;;0.60;0.60;;;;;;;;;;4994066;28;20181;-88
2023/10/12 00:31:06;;;;;;;0.50;0.50;;;;;;;;;;4976967;28;20790;-87
2023/10/12 00:33:32;;;;;;;0.40;0.40;;;;;;;;;;4994575;28;20545;-88
2023/10/12 00:36:04;;;;;;;0.60;0.60;;;;;;;;;;4994659;28;20265;-88
2023/10/12 00:38:30;;;;;;;0.50;0.50;;;;;;;;;;4977252;28;20181;-87
2023/10/12 00:41:14;;;;;;;0.50;0.50;;;;;;;;;;4994370;28;20204;-87
2023/10/12 00:44:07;;;;;;;0.50;0.50;;;;;;;;;;4994531;28;20177;-88
2023/10/12 00:46:40;;;;;;;0.67;0.67;;;;;;;;;;4976976;28;20205;-89
2023/10/12 00:52:07;;;;;;;0.57;0.57;;;;;;;;;;4993928;28;20744;-88
2023/10/12 00:57:03;;;;;;;0.60;0.60;;;;;;;;;;4994058;28;20184;-88
2023/10/12 00:59:33;;;;;;;0.50;0.50;;;;;;;;;;4993856;28;20216;-87
2023/10/12 01:02:00;;;;;;;0.40;0.40;;;;;;;;;;4976117;28;20204;-88
2023/10/12 01:04:27;;;;;;;0.40;0.40;;;;;;;;;;4993856;28;20678;-88
2023/10/12 01:06:59;;;;;;;0.60;0.60;;;;;;;;;;4993768;28;20694;-87
2023/10/12 01:09:26;;;;;;;0.40;0.40;;;;;;;;;;4976580;28;20170;-88
2023/10/12 01:11:57;;;;;;;0.60;0.60;;;;;;;;;;4993580;28;20219;-88
2023/10/12 01:14:28;;;;;;;0.50;0.50;;;;;;;;;;4993918;28;20654;-87
2023/10/12 01:16:57;;;;;;;0.50;0.50;;;;;;;;;;4977073;28;20256;-87
2023/10/12 01:19:24;;;;;;;0.60;0.60;;;;;;;;;;5000872;28;20310;-88
2023/10/12 01:21:50;;;;;;;0.60;0.60;;;;;;;;;;5019261;28;20188;-92
2023/10/12 01:24:16;;;;;;;0.40;0.40;;;;;;;;;;5019607;28;20177;-91
2023/10/12 01:26:53;;;;;;;0.70;0.70;;;;;;;;;;5014309;28;20201;-89
2023/10/12 01:29:22;;;;;;;0.50;0.50;;;;;;;;;;5005393;28;20212;-88
2023/10/12 01:32:20;;;;;;;0.60;0.60;;;;;;;;;;4979545;28;20211;-88
2023/10/12 01:34:44;;;;;;;0.60;0.60;;;;;;;;;;4993914;28;20562;-88
2023/10/12 01:37:26;;;;;;;0.60;0.60;;;;;;;;;;4976003;28;20708;-88
2023/10/12 01:39:57;;;;;;;0.43;0.43;;;;;;;;;;4993237;28;20725;-88
2023/10/12 01:42:34;;;;;;;0.70;0.70;;;;;;;;;;4993036;28;20196;-88
2023/10/12 01:45:02;;;;;;;0.70;0.70;;;;;;;;;;4975870;28;20173;-88
2023/10/12 01:47:29;;;;;;;0.60;0.60;;;;;;;;;;4993400;28;20669;-88
2023/10/12 01:50:00;;;;;;;0.50;0.50;;;;;;;;;;4993310;28;20189;-87
2023/10/12 01:52:27;;;;;;;0.60;0.60;;;;;;;;;;4975402;28;20198;-88
2023/10/12 01:54:53;;;;;;;0.70;0.70;;;;;;;;;;4993536;28;20177;-88
2023/10/12 01:57:30;;;;;;;0.67;0.67;;;;;;;;;;4975856;28;20600;-89
2023/10/12 01:59:58;;;;;;;0.60;0.60;;;;;;;;;;4993082;28;20200;-88
2023/10/12 02:02:24;;;;;;;0.60;0.60;;;;;;;;;;4975551;28;20280;-88
2023/10/12 02:04:51;;;;;;;0.60;0.60;;;;;;;;;;4976228;28;20220;-88
2023/10/12 02:07:17;;;;;;;0.60;0.60;;;;;;;;;;4990740;28;20236;-88
2023/10/12 02:09:44;;;;;;;0.70;0.70;;;;;;;;;;4993421;28;20256;-88
2023/10/12 02:12:13;;;;;;;0.60;0.60;;;;;;;;;;4993040;28;20263;-88
2023/10/12 02:14:40;;;;;;;0.60;0.60;;;;;;;;;;4976288;28;20181;-88
2023/10/12 02:17:09;;;;;;;0.70;0.70;;;;;;;;;;4994842;28;20771;-88
2023/10/12 02:19:44;;;;;;;0.60;0.60;;;;;;;;;;4996004;28;20553;-88
2023/10/12 02:22:24;;;;;;;0.70;0.70;;;;;;;;;;4995905;28;20204;-87
2023/10/12 02:25:06;;;;;;;0.60;0.60;;;;;;;;;;4998606;28;20189;-87
2023/10/12 02:27:33;;;;;;;0.67;0.67;;;;;;;;;;4995143;28;20197;-89
2023/10/12 02:29:59;;;;;;;0.60;0.60;;;;;;;;;;4993000;28;20678;-88
2023/10/12 02:32:25;;;;;;;0.60;0.60;;;;;;;;;;4975380;28;20626;-88
2023/10/12 02:35:00;;;;;;;0.60;0.60;;;;;;;;;;4993084;28;20247;-88
2023/10/12 02:37:28;;;;;;;0.60;0.60;;;;;;;;;;4992772;28;20650;-89
2023/10/12 02:39:54;;;;;;;0.70;0.70;;;;;;;;;;4992780;28;20181;-89
2023/10/12 02:42:38;;;;;;;0.60;0.60;;;;;;;;;;4992443;28;20594;-88
2023/10/12 02:47:45;;;;;;;0.53;0.53;;;;;;;;;;4992981;28;20299;-89
2023/10/12 02:52:38;;;;;;;0.60;0.60;;;;;;;;;;5011307;28;20220;-88
2023/10/12 02:55:24;;;;;;;0.50;0.50;;;;;;;;;;4980139;28;20555;-88
2023/10/12 02:57:54;;;;;;;0.57;0.57;;;;;;;;;;4997818;28;20193;-88
2023/10/12 03:00:31;;;;;;;0.53;0.53;;;;;;;;;;4997739;28;20193;-87
2023/10/12 03:03:05;;;;;;;0.50;0.50;;;;;;;;;;4996944;28;20197;-88
2023/10/12 03:05:34;;;;;;;0.60;0.60;;;;;;;;;;4996622;28;20585;-88
2023/10/12 03:08:06;;;;;;;0.50;0.50;;;;;;;;;;4996539;28;20241;-88
2023/10/12 03:10:32;;;;;;;0.53;0.53;;;;;;;;;;5008552;28;20250;-91
2023/10/12 03:13:04;;;;;;;0.57;0.57;;;;;;;;;;5002901;28;20268;-91
2023/10/12 03:15:49;;;;;;;0.50;0.50;;;;;;;;;;5003962;28;20165;-89
2023/10/12 03:18:15;;;;;;;0.60;0.60;;;;;;;;;;5021194;28;20237;-90
2023/10/12 03:21:02;;;;;;;0.60;0.60;;;;;;;;;;5016077;28;20177;-88
2023/10/12 03:23:27;;;;;;;0.60;0.60;;;;;;;;;;4996209;28;20181;-88
2023/10/12 03:25:53;;;;;;;0.50;0.50;;;;;;;;;;4978663;28;20259;-88
2023/10/12 03:28:36;;;;;;;0.60;0.60;;;;;;;;;;4995586;28;20894;-88
2023/10/12 03:33:54;;;;;;;0.50;0.50;;;;;;;;;;4996053;28;20227;-89
2023/10/12 03:36:25;;;;;;;0.53;0.53;;;;;;;;;;4995580;28;20180;-89
2023/10/12 03:47:15;;;;;;;0.60;0.60;;;;;;;;;;4995487;28;20259;-89
2023/10/12 03:49:57;;;;;;;0.50;0.50;;;;;;;;;;4977842;28;20184;-88
2023/10/12 03:52:34;;;;;;;0.60;0.60;;;;;;;;;;4995687;28;20196;-87
2023/10/12 03:57:44;;;;;;;0.40;0.40;;;;;;;;;;4995345;28;20220;-89
2023/10/12 04:02:42;;;;;;;0.50;0.50;;;;;;;;;;4993319;28;20333;-89
2023/10/12 04:05:21;;;;;;;0.50;0.50;;;;;;;;;;4995029;28;20180;-89
2023/10/12 04:13:08;;;;;;;0.50;0.50;;;;;;;;;;4976218;28;20208;-89
2023/10/12 04:16:05;;;;;;;0.60;0.60;;;;;;;;;;5006241;28;20237;-90
2023/10/12 04:18:32;;;;;;;0.70;0.70;;;;;;;;;;5007326;28;20259;-90
2023/10/12 04:20:58;;;;;;;0.70;0.70;;;;;;;;;;5008674;28;20184;-90
2023/10/12 04:28:56;;;;;;;0.53;0.53;;;;;;;;;;4994448;28;20187;-89
2023/10/12 04:41:38;;;;;;;0.50;0.50;;;;;;;;;;4994824;28;20600;-89
2023/10/12 04:46:59;;;;;;;0.50;0.50;;;;;;;;;;4994663;28;20941;-89
2023/10/12 04:49:54;;;;;;;0.60;0.60;;;;;;;;;;4994339;28;20185;-87
2023/10/12 04:52:24;;;;;;;0.60;0.60;;;;;;;;;;4993869;28;20197;-88
2023/10/12 04:57:33;;;;;;;0.60;0.60;;;;;;;;;;4994374;28;20181;-89
2023/10/12 05:05:54;;;;;;;0.60;0.60;;;;;;;;;;4994501;28;20181;-89
2023/10/12 05:08:02;;;;;;;0.60;0.60;;;;;;;;;;4993674;28;20717;-89
2023/10/12 05:13:05;;;;;;;0.60;0.60;;;;;;;;;;4994816;28;20200;-89
2023/10/12 05:15:42;;;;;;;0.70;0.70;;;;;;;;;;5003307;28;20168;-88
2023/10/12 05:18:12;;;;;;;0.50;0.50;;;;;;;;;;4993487;28;20184;-89
2023/10/12 05:20:41;;;;;;;0.60;0.60;;;;;;;;;;5010072;28;20177;-90
2023/10/12 05:23:08;;;;;;;0.60;0.60;;;;;;;;;;5003326;28;20292;-88
2023/10/12 05:28:18;;;;;;;0.60;0.60;;;;;;;;;;5010945;28;20701;-88
2023/10/12 05:31:09;;;;;;;0.63;0.63;;;;;;;;;;5005678;28;20679;-90
2023/10/12 05:36:05;;;;;;;0.60;0.60;;;;;;;;;;5017148;28;20179;-88
2023/10/12 05:38:37;;;;;;;0.60;0.60;;;;;;;;;;5012757;28;20180;-87
2023/10/12 05:41:10;;;;;;;0.50;0.50;;;;;;;;;;5016342;28;20191;-87
2023/10/12 05:43:39;;;;;;;0.50;0.50;;;;;;;;;;5016079;28;20285;-87
2023/10/12 05:46:10;;;;;;;0.40;0.40;;;;;;;;;;5013079;28;20665;-89
2023/10/12 05:48:45;;;;;;;0.60;0.60;;;;;;;;;;5010081;28;20184;-88
2023/10/12 05:51:11;;;;;;;0.70;0.70;;;;;;;;;;4976019;28;20283;-89
2023/10/12 05:53:40;;;;;;;0.60;0.60;;;;;;;;;;5008199;28;20172;-87
2023/10/12 05:56:06;;;;;;;0.60;0.60;;;;;;;;;;4996104;28;20184;-89
2023/10/12 05:58:34;;;;;;;0.63;0.63;;;;;;;;;;5006799;28;20192;-88
2023/10/12 06:01:08;;;;;;;0.57;0.57;;;;;;;;;;4997271;28;20670;-90
2023/10/12 06:03:35;;;;;;;0.60;0.60;;;;;;;;;;4987856;28;20179;-88
2023/10/12 06:06:00;;;;;;;0.60;0.60;;;;;;;;;;5004755;28;20169;-89
2023/10/12 06:08:28;;;;;;;0.70;0.70;;;;;;;;;;5012549;28;20708;-88
2023/10/12 06:10:54;;;;;;;0.57;0.57;;;;;;;;;;4994802;28;20172;-88
2023/10/12 06:13:30;;;;;;;0.60;0.60;;;;;;;;;;5011725;28;20251;-88
2023/10/12 06:15:56;;;;;;;0.70;0.70;;;;;;;;;;5012830;28;20168;-88
2023/10/12 06:18:25;;;;;;;0.53;0.53;;;;;;;;;;5012562;28;20176;-88
2023/10/12 06:20:58;;;;;;;0.60;0.60;;;;;;;;;;5012363;28;20183;-89
2023/10/12 06:23:28;;;;;;;0.57;0.57;;;;;;;;;;5012538;28;20260;-89
2023/10/12 06:25:55;;;;;;;0.60;0.60;;;;;;;;;;5013395;28;20172;-89
2023/10/12 06:28:23;;;;;;;0.60;0.60;;;;;;;;;;4996616;28;20209;-89
2023/10/12 06:30:50;;;;;;;0.50;0.50;;;;;;;;;;4986614;28;20168;-90
2023/10/12 06:33:17;;;;;;;0.50;0.50;;;;;;;;;;5017306;28;20168;-89
2023/10/12 06:35:59;;;;;;;0.50;0.50;;;;;;;;;;5011613;28;20172;-89
2023/10/12 06:46:44;;;;;;;0.37;0.37;;;;;;;;;;5016894;28;20224;-89
2023/10/12 06:49:16;;;;;;;0.43;0.43;;;;;;;;;;4996797;28;20615;-89
2023/10/12 06:51:43;;;;;;;0.33;0.33;;;;;;;;;;4996054;28;20193;-88
2023/10/12 06:54:19;;;;;;;0.40;0.40;;;;;;;;;;5004707;28;20679;-88
2023/10/12 06:56:51;;;;;;;0.40;0.40;;;;;;;;;;5015606;28;20192;-89
2023/10/12 07:04:15;;;;;;;0.50;0.50;;;;;;;;;;5015792;28;20181;-88
2023/10/12 07:07:07;;;;;;;0.30;0.30;;;;;;;;;;4998293;28;20220;-86
2023/10/12 07:09:39;;;;;;;0.40;0.40;;;;;;;;;;5015985;28;20238;-88
2023/10/12 07:12:17;;;;;;;0.33;0.33;;;;;;;;;;5015571;28;20668;-85
2023/10/12 07:14:47;;;;;;;0.30;0.30;;;;;;;;;;5016397;28;20196;-87
2023/10/12 07:17:13;;;;;;;0.30;0.30;;;;;;;;;;5015583;28;20177;-89
2023/10/12 07:19:51;;;;;;;0.30;0.30;;;;;;;;;;5015264;28;20271;-90
2023/10/12 07:22:19;;;;;;;0.40;0.40;;;;;;;;;;5015232;28;20219;-86
2023/10/12 07:24:46;;;;;;;0.30;0.30;;;;;;;;;;4997694;28;20185;-87
2023/10/12 07:27:17;;;;;;;0.40;0.40;;;;;;;;;;4997443;28;20215;-87
2023/10/12 07:29:47;;;;;;;0.30;0.30;;;;;;;;;;5015077;28;20181;-87
2023/10/12 07:32:38;;;;;;;0.30;0.30;;;;;;;;;;4997140;28;20243;-88
2023/10/12 07:35:17;;;;;;;0.30;0.30;;;;;;;;;;5015353;28;20180;-89
2023/10/12 07:37:43;;;;;;;0.40;0.40;;;;;;;;;;5014587;28;20196;-86
2023/10/12 07:40:20;;;;;;;0.43;0.43;;;;;;;;;;5015017;28;20176;-85
2023/10/12 07:42:46;;;;;;;0.30;0.30;;;;;;;;;;4996745;28;20208;-86
2023/10/12 07:45:14;;;;;;;0.30;0.30;;;;;;;;;;5015435;28;20187;-86
2023/10/12 07:47:40;;;;;;;0.20;0.20;;;;;;;;;;5014855;28;20693;-87
2023/10/12 07:50:12;;;;;;;0.30;0.30;;;;;;;;;;4997565;28;20175;-87
2023/10/12 07:55:07;;;;;;;0.30;0.30;;;;;;;;;;5015458;28;20165;-86
2023/10/12 07:57:36;;;;;;;0.30;0.30;;;;;;;;;;5015263;28;20263;-86
2023/10/12 08:13:15;;;;;;;0.30;0.30;;;;;;;;;;5014976;28;20204;-86
2023/10/12 08:24:25;;;;;;;0.30;0.30;;;;;;;;;;5014691;28;20223;-86
2023/10/12 08:29:17;;;;;;;0.30;0.30;;;;;;;;;;5014915;28;20176;-87
2023/10/12 08:31:43;;;;;;;0.30;0.30;;;;;;;;;;4996276;28;20562;-87
2023/10/12 08:37:17;;;;;;;0.33;0.33;;;;;;;;;;5009578;28;20548;-86
2023/10/12 08:39:50;;;;;;;0.30;0.30;;;;;;;;;;4996271;28;20168;-87
2023/10/12 08:44:51;;;;;;;0.40;0.40;;;;;;;;;;5013932;28;20223;-88
2023/10/12 08:48:01;;;;;;;0.30;0.30;;;;;;;;;;5002248;28;20236;-87
2023/10/12 08:50:25;;;;;;;0.30;0.30;;;;;;;;;;5030817;28;20192;-86
2023/10/12 08:52:52;;;;;;;0.40;0.40;;;;;;;;;;5016004;28;20213;-89
2023/10/12 08:55:24;;;;;;;0.40;0.40;;;;;;;;;;5017449;28;20185;-89
2023/10/12 08:57:56;;;;;;;0.20;0.20;;;;;;;;;;5009244;28;20169;-87
2023/10/12 09:03:24;;;;;;;0.30;0.30;;;;;;;;;;5008989;28;20247;-89
2023/10/12 09:05:54;;;;;;;0.30;0.30;;;;;;;;;;5013629;28;20203;-89
2023/10/12 09:13:35;;;;;;;0.30;0.30;;;;;;;;;;5021052;28;20203;-90
2023/10/12 09:16:03;;;;;;;0.40;0.40;;;;;;;;;;5026854;28;20180;-92
2023/10/12 09:18:35;;;;;;;0.40;0.40;;;;;;;;;;5005452;28;20254;-88
2023/10/12 09:28:43;;;;;;;0.40;0.40;;;;;;;;;;5013144;28;20254;-89
2023/10/12 09:31:13;;;;;;;0.40;0.40;;;;;;;;;;5012974;28;20209;-88
2023/10/12 09:34:12;;;;;;;0.30;0.30;;;;;;;;;;5013106;28;20642;-88
2023/10/12 09:36:38;;;;;;;0.30;0.30;;;;;;;;;;4996181;28;20269;-89
2023/10/12 09:39:12;;;;;;;0.40;0.40;;;;;;;;;;5014221;28;20627;-88
2023/10/12 09:41:39;;;;;;;0.30;0.30;;;;;;;;;;5014116;28;20201;-88
2023/10/12 09:44:07;;;;;;;0.40;0.40;;;;;;;;;;4995894;28;20179;-90
2023/10/12 09:46:36;;;;;;;0.30;0.30;;;;;;;;;;5013074;28;20213;-88
2023/10/12 09:49:06;;;;;;;0.30;0.30;;;;;;;;;;5018784;28;20160;-90
2023/10/12 09:51:36;;;;;;;0.33;0.33;;;;;;;;;;5022361;28;20663;-89
2023/10/12 09:54:15;;;;;;;0.30;0.30;;;;;;;;;;5013675;28;20172;-89
2023/10/12 09:56:46;;;;;;;0.20;0.20;;;;;;;;;;5013732;28;20172;-90
2023/10/12 09:59:14;;;;;;;0.30;0.30;;;;;;;;;;4995595;28;20291;-90
2023/10/12 10:07:15;;;;;;;0.33;0.33;;;;;;;;;;5015396;28;20298;-86
2023/10/12 10:09:48;;;;;;;0.20;0.20;;;;;;;;;;5003490;28;20168;-87
2023/10/12 10:12:17;;;;;;;0.40;0.40;;;;;;;;;;5017124;28;20196;-88
2023/10/12 10:14:47;;;;;;;0.40;0.40;;;;;;;;;;5003384;28;20195;-89
2023/10/12 10:17:16;;;;;;;0.30;0.30;;;;;;;;;;5019642;28;20608;-89
2023/10/12 10:19:44;;;;;;;0.30;0.30;;;;;;;;;;5019052;28;20168;-87
2023/10/12 10:22:14;;;;;;;0.30;0.30;;;;;;;;;;5016625;28;20309;-87
2023/10/12 10:24:46;;;;;;;0.30;0.30;;;;;;;;;;4998294;28;20196;-87
2023/10/12 10:27:13;;;;;;;0.33;0.33;;;;;;;;;;4997838;28;20211;-88
2023/10/12 10:29:45;;;;;;;0.40;0.40;;;;;;;;;;5020536;28;20180;-88
2023/10/12 10:32:14;;;;;;;0.30;0.30;;;;;;;;;;5014870;28;20226;-88
2023/10/12 10:34:41;;;;;;;0.33;0.33;;;;;;;;;;5015400;28;20275;-87
2023/10/12 10:37:07;;;;;;;0.40;0.40;;;;;;;;;;4997844;28;20608;-90
2023/10/12 10:39:37;;;;;;;0.30;0.30;;;;;;;;;;4998470;28;20679;-85
2023/10/12 10:42:07;;;;;;;0.20;0.20;;;;;;;;;;5017926;28;20204;-89
2023/10/12 10:44:45;;;;;;;0.30;0.30;;;;;;;;;;4998289;28;20536;-87
2023/10/12 10:47:15;;;;;;;0.20;0.20;;;;;;;;;;5017358;28;20214;-89
2023/10/12 10:49:45;;;;;;;0.20;0.20;;;;;;;;;;4998237;28;20254;-88
2023/10/12 10:52:14;;;;;;;0.30;0.30;;;;;;;;;;4997479;28;20196;-92
2023/10/12 10:54:59;;;;;;;0.40;0.40;;;;;;;;;;5016406;28;20171;-91
2023/10/12 10:57:31;;;;;;;0.27;0.27;;;;;;;;;;5017731;28;20259;-90
2023/10/12 10:59:57;;;;;;;0.30;0.30;;;;;;;;;;5016078;28;20208;-91
2023/10/12 11:02:23;;;;;;;0.20;0.20;;;;;;;;;;5015760;28;20291;-92
2023/10/12 11:04:55;;;;;;;0.30;0.30;;;;;;;;;;5016421;28;20282;-88
2023/10/12 11:07:21;;;;;;;0.30;0.30;;;;;;;;;;5037424;28;20223;-88
2023/10/12 11:12:17;;;;;;;0.40;0.40;;;;;;;;;;5036738;28;20223;-87
2023/10/12 11:15:00;;;;;;;0.30;0.30;;;;;;;;;;5032343;28;20188;-86
2023/10/12 11:17:30;;;;;;;0.30;0.30;;;;;;;;;;5016767;28;20203;-85
2023/10/12 11:19:57;;;;;;;0.40;0.40;;;;;;;;;;5016812;28;20180;-85
2023/10/12 11:22:23;;;;;;;0.30;0.30;;;;;;;;;;5018276;28;20192;-82
2023/10/12 11:24:49;;;;;;;0.30;0.30;;;;;;;;;;5019973;28;20176;-84
2023/10/12 11:27:31;;;;;;;0.30;0.30;;;;;;;;;;5018074;28;20212;-84
2023/10/12 11:30:00;;;;;;;0.30;0.30;;;;;;;;;;5017813;28;20169;-86
2023/10/12 11:32:28;;;;;;;0.30;0.30;;;;;;;;;;5016662;28;20196;-86
2023/10/12 11:34:59;;;;;;;0.30;0.30;;;;;;;;;;5016349;28;20530;-87
2023/10/12 11:37:27;;;;;;;0.30;0.30;;;;;;;;;;5015288;28;20179;-86
2023/10/12 11:39:54;;;;;;;0.33;0.33;;;;;;;;;;5016268;28;20180;-87
2023/10/12 11:42:20;;;;;;;0.30;0.30;;;;;;;;;;4997553;28;20670;-91
2023/10/12 11:44:48;;;;;;;0.37;0.37;;;;;;;;;;4998660;28;20259;-90
2023/10/12 11:47:26;;;;;;;0.30;0.30;;;;;;;;;;5015552;28;20744;-92
2023/10/12 11:49:58;;;;;;;0.30;0.30;;;;;;;;;;5017612;28;20256;-89
2023/10/12 11:52:34;;;;;;;0.30;0.30;;;;;;;;;;5015582;28;20350;-91
2023/10/12 11:55:01;;;;;;;0.30;0.30;;;;;;;;;;5015753;28;20183;-90
2023/10/12 11:57:27;;;;;;;0.20;0.20;;;;;;;;;;5016067;28;20737;-91
2023/10/12 11:59:53;;;;;;;0.40;0.40;;;;;;;;;;4998229;28;20197;-87
2023/10/12 12:02:22;;;;;;;0.30;0.30;;;;;;;;;;4996629;28;20200;-88
2023/10/12 12:04:50;;;;;;;0.37;0.37;;;;;;;;;;5015047;28;20208;-90
2023/10/12 12:07:16;;;;;;;0.33;0.33;;;;;;;;;;4996738;28;20212;-89
2023/10/12 12:09:48;;;;;;;0.30;0.30;;;;;;;;;;5014461;28;20173;-87
2023/10/12 12:12:16;;;;;;;0.30;0.30;;;;;;;;;;5014480;28;20726;-93
2023/10/12 12:14:46;;;;;;;0.37;0.37;;;;;;;;;;4999201;28;20184;-88
2023/10/12 12:17:13;;;;;;;0.37;0.37;;;;;;;;;;5014476;28;20638;-86
2023/10/12 12:19:41;;;;;;;0.40;0.40;;;;;;;;;;5014218;28;20173;-88
2023/10/12 12:22:10;;;;;;;0.30;0.30;;;;;;;;;;5013513;28;20189;-87
2023/10/12 12:24:37;;;;;;;0.30;0.30;;;;;;;;;;5012871;28;20546;-87
2023/10/12 12:27:05;;;;;;;0.30;0.30;;;;;;;;;;5013501;28;20200;-88
2023/10/12 12:29:32;;;;;;;0.30;0.30;;;;;;;;;;4996250;28;20242;-88
2023/10/12 12:31:58;;;;;;;0.30;0.30;;;;;;;;;;4996207;28;20262;-84
2023/10/12 12:34:41;;;;;;;0.27;0.27;;;;;;;;;;5014970;28;20272;-86
2023/10/12 12:37:08;;;;;;;0.40;0.40;;;;;;;;;;4996172;28;20180;-87
2023/10/12 12:39:34;;;;;;;0.40;0.40;;;;;;;;;;5013963;28;20173;-85
2023/10/12 12:42:10;;;;;;;0.30;0.30;;;;;;;;;;5013108;28;20246;-90
2023/10/12 12:44:37;;;;;;;0.30;0.30;;;;;;;;;;5013682;28;20184;-88
2023/10/12 12:47:06;;;;;;;0.30;0.30;;;;;;;;;;4996313;28;20262;-90
2023/10/12 12:49:32;;;;;;;0.30;0.30;;;;;;;;;;5013739;28;20181;-85
2023/10/12 12:51:58;;;;;;;0.30;0.30;;;;;;;;;;5012865;28;20292;-87
2023/10/12 12:54:24;;;;;;;0.30;0.30;;;;;;;;;;5013427;28;20200;-87
2023/10/12 12:56:53;;;;;;;0.30;0.30;;;;;;;;;;5013186;28;20181;-87
2023/10/12 12:59:24;;;;;;;0.30;0.30;;;;;;;;;;4991289;28;20189;-92
2023/10/12 13:01:50;;;;;;;0.30;0.30;;;;;;;;;;4996263;28;20243;-91
2023/10/12 13:04:17;;;;;;;0.30;0.30;;;;;;;;;;5005160;28;20236;-91
2023/10/12 13:06:43;;;;;;;0.20;0.20;;;;;;;;;;5009833;28;20221;-89
2023/10/12 13:09:28;;;;;;;0.33;0.33;;;;;;;;;;5028965;28;20181;-91
2023/10/12 13:11:55;;;;;;;0.20;0.20;;;;;;;;;;5013197;28;20201;-89
2023/10/12 13:14:21;;;;;;;0.30;0.30;;;;;;;;;;4999235;28;20639;-88
2023/10/12 13:16:49;;;;;;;0.30;0.30;;;;;;;;;;4993535;28;20260;-89
2023/10/12 13:19:17;;;;;;;0.30;0.30;;;;;;;;;;4993620;28;20188;-88
2023/10/12 13:21:43;;;;;;;0.30;0.30;;;;;;;;;;4993345;28;20216;-88
2023/10/12 13:24:12;;;;;;;0.30;0.30;;;;;;;;;;4993573;28;20181;-88
2023/10/12 13:26:43;;;;;;;0.30;0.30;;;;;;;;;;4993821;28;20181;-88
2023/10/12 13:29:10;;;;;;;0.30;0.30;;;;;;;;;;4993522;28;20230;-87
2023/10/12 13:31:36;;;;;;;0.30;0.30;;;;;;;;;;4993888;28;20193;-86
2023/10/12 13:34:05;;;;;;;0.37;0.37;;;;;;;;;;4994716;28;20200;-87
2023/10/12 13:36:31;;;;;;;0.30;0.30;;;;;;;;;;4978071;28;20180;-88
2023/10/12 13:38:57;;;;;;;0.40;0.40;;;;;;;;;;4995466;28;20176;-87
2023/10/12 13:41:24;;;;;;;0.20;0.20;;;;;;;;;;4994300;28;20283;-87
2023/10/12 13:43:50;;;;;;;0.33;0.33;;;;;;;;;;5011813;28;20223;-87
2023/10/12 13:46:16;;;;;;;0.30;0.30;;;;;;;;;;5014232;28;20176;-86
2023/10/12 13:48:47;;;;;;;0.37;0.37;;;;;;;;;;5013743;28;20213;-87
2023/10/12 13:51:19;;;;;;;0.30;0.30;;;;;;;;;;5013699;28;20307;-87
2023/10/12 13:53:46;;;;;;;0.40;0.40;;;;;;;;;;5001948;28;20242;-87
2023/10/12 13:56:12;;;;;;;0.30;0.30;;;;;;;;;;5037545;28;20410;-88
2023/10/12 13:58:39;;;;;;;0.30;0.30;;;;;;;;;;5036978;28;20181;-88
2023/10/12 14:01:18;;;;;;;0.20;0.20;;;;;;;;;;5036768;28;20169;-84
2023/10/12 14:03:45;;;;;;;0.30;0.30;;;;;;;;;;5019528;28;20168;-84
2023/10/12 14:06:12;;;;;;;0.30;0.30;;;;;;;;;;5034437;28;20176;-88
2023/10/12 14:08:42;;;;;;;0.30;0.30;;;;;;;;;;5013132;28;20216;-87
2023/10/12 14:11:13;;;;;;;0.40;0.40;;;;;;;;;;5022318;28;21011;-86
2023/10/12 14:13:39;;;;;;;0.20;0.20;;;;;;;;;;5035298;28;20184;-86
2023/10/12 14:16:09;;;;;;;0.30;0.30;;;;;;;;;;5035021;28;20187;-86
2023/10/12 14:18:35;;;;;;;0.33;0.33;;;;;;;;;;5036012;28;20231;-87
2023/10/12 14:21:01;;;;;;;0.30;0.30;;;;;;;;;;5012787;28;20685;-87
2023/10/12 14:23:27;;;;;;;0.40;0.40;;;;;;;;;;5012238;28;20181;-86
2023/10/12 14:25:54;;;;;;;0.30;0.30;;;;;;;;;;5012435;28;20591;-87
2023/10/12 14:28:21;;;;;;;0.20;0.20;;;;;;;;;;5012051;28;20216;-88
2023/10/12 14:30:47;;;;;;;0.30;0.30;;;;;;;;;;5011625;28;20177;-87
2023/10/12 14:33:15;;;;;;;0.30;0.30;;;;;;;;;;5012092;28;20180;-88
2023/10/12 14:35:41;;;;;;;0.30;0.30;;;;;;;;;;5012344;28;20176;-87
2023/10/12 14:38:08;;;;;;;0.30;0.30;;;;;;;;;;5012068;28;20203;-86
2023/10/12 14:40:35;;;;;;;0.30;0.30;;;;;;;;;;5011966;28;20615;-87
2023/10/12 14:43:10;;;;;;;0.30;0.30;;;;;;;;;;5011746;28;20693;-87
2023/10/12 14:45:38;;;;;;;0.30;0.30;;;;;;;;;;5012320;28;20311;-87
2023/10/12 14:48:10;;;;;;;0.30;0.30;;;;;;;;;;4996966;28;20208;-87
2023/10/12 14:50:43;;;;;;;0.30;0.30;;;;;;;;;;4997851;28;20662;-89
2023/10/12 14:53:21;;;;;;;0.20;0.20;;;;;;;;;;5015602;28;20184;-88
2023/10/12 14:55:53;;;;;;;0.40;0.40;;;;;;;;;;5015827;28;20168;-87
2023/10/12 14:58:20;;;;;;;0.30;0.30;;;;;;;;;;5015211;28;20188;-86
2023/10/12 15:00:46;;;;;;;0.30;0.30;;;;;;;;;;5015125;28;20258;-87
2023/10/12 15:03:15;;;;;;;0.30;0.30;;;;;;;;;;5015680;28;20686;-87
2023/10/12 15:05:41;;;;;;;0.30;0.30;;;;;;;;;;4997867;28;20188;-89
2023/10/12 15:08:08;;;;;;;0.40;0.40;;;;;;;;;;5015176;28;20259;-87
2023/10/12 15:10:40;;;;;;;0.30;0.30;;;;;;;;;;5015816;28;20177;-86
2023/10/12 15:13:11;;;;;;;0.20;0.20;;;;;;;;;;5015706;28;20384;-87
2023/10/12 15:15:37;;;;;;;0.40;0.40;;;;;;;;;;5015482;28;20200;-88
2023/10/12 15:18:03;;;;;;;0.30;0.30;;;;;;;;;;4997683;28;20275;-89
2023/10/12 15:20:31;;;;;;;0.30;0.30;;;;;;;;;;5014896;28;20180;-88
2023/10/12 15:22:57;;;;;;;0.33;0.33;;;;;;;;;;5014814;28;20254;-87
2023/10/12 15:25:23;;;;;;;0.40;0.40;;;;;;;;;;5015634;28;20271;-89
2023/10/12 15:27:49;;;;;;;0.30;0.30;;;;;;;;;;5016102;28;20216;-89
2023/10/12 15:30:16;;;;;;;0.30;0.30;;;;;;;;;;5022002;28;20665;-87
2023/10/12 15:32:43;;;;;;;0.30;0.30;;;;;;;;;;5014747;28;20185;-87
2023/10/12 15:35:12;;;;;;;0.30;0.30;;;;;;;;;;5015400;28;20183;-87
2023/10/12 15:37:45;;;;;;;0.33;0.33;;;;;;;;;;4998283;28;20594;-88
2023/10/12 15:40:20;;;;;;;0.40;0.40;;;;;;;;;;4997351;28;20180;-86
2023/10/12 15:42:46;;;;;;;0.30;0.30;;;;;;;;;;4997397;28;20219;-87
2023/10/12 15:45:12;;;;;;;0.40;0.40;;;;;;;;;;4998848;28;20208;-86
2023/10/12 15:47:39;;;;;;;0.30;0.30;;;;;;;;;;5014711;28;20239;-86
2023/10/12 15:50:05;;;;;;;0.30;0.30;;;;;;;;;;4998074;28;20650;-86
2023/10/12 15:52:31;;;;;;;0.30;0.30;;;;;;;;;;4997387;28;20566;-86
2023/10/12 15:54:57;;;;;;;0.30;0.30;;;;;;;;;;5014704;28;20540;-86
2023/10/12 15:57:23;;;;;;;0.23;0.23;;;;;;;;;;5014670;28;20192;-86
2023/10/12 15:59:53;;;;;;;0.30;0.30;;;;;;;;;;5014155;28;20681;-87
2023/10/12 16:02:19;;;;;;;0.30;0.30;;;;;;;;;;5013686;28;20203;-86
2023/10/12 16:04:47;;;;;;;0.40;0.40;;;;;;;;;;4996894;28;20263;-86
2023/10/12 16:07:17;;;;;;;0.30;0.30;;;;;;;;;;4996596;28;20238;-86
2023/10/12 16:09:46;;;;;;;0.40;0.40;;;;;;;;;;5021195;28;20236;-86
2023/10/12 16:12:16;;;;;;;0.30;0.30;;;;;;;;;;5017012;28;20243;-86
2023/10/12 16:14:42;;;;;;;0.30;0.30;;;;;;;;;;5018084;28;20204;-87
2023/10/12 16:17:08;;;;;;;0.30;0.30;;;;;;;;;;5024631;28;20658;-86
2023/10/12 16:19:34;;;;;;;0.30;0.30;;;;;;;;;;5014477;28;20570;-86
2023/10/12 16:22:00;;;;;;;0.20;0.20;;;;;;;;;;5013736;28;20196;-86
2023/10/12 16:24:26;;;;;;;0.33;0.33;;;;;;;;;;5013978;28;20473;-87
2023/10/12 16:26:52;;;;;;;0.30;0.30;;;;;;;;;;4996054;28;20200;-87
2023/10/12 16:29:19;;;;;;;0.40;0.40;;;;;;;;;;5013928;28;20188;-86
2023/10/12 16:31:46;;;;;;;0.33;0.33;;;;;;;;;;5011048;28;20296;-86
2023/10/12 16:34:12;;;;;;;0.30;0.30;;;;;;;;;;5013910;28;20187;-86
2023/10/12 16:36:40;;;;;;;0.30;0.30;;;;;;;;;;5013462;28;20244;-86
2023/10/12 16:39:06;;;;;;;0.33;0.33;;;;;;;;;;5013680;28;20185;-87
2023/10/12 16:41:33;;;;;;;0.30;0.30;;;;;;;;;;5013236;28;20196;-86
2023/10/12 16:43:59;;;;;;;0.30;0.30;;;;;;;;;;5013389;28;20176;-86
2023/10/12 16:46:25;;;;;;;0.33;0.33;;;;;;;;;;5014450;28;20677;-86
2023/10/12 16:48:51;;;;;;;0.27;0.27;;;;;;;;;;5014320;28;20299;-86
2023/10/12 16:51:19;;;;;;;0.30;0.30;;;;;;;;;;5021751;28;20687;-86
2023/10/12 16:53:46;;;;;;;0.30;0.30;;;;;;;;;;5037868;28;20165;-86
2023/10/12 16:56:13;;;;;;;0.30;0.30;;;;;;;;;;5038124;28;20180;-87
2023/10/12 16:58:42;;;;;;;0.30;0.30;;;;;;;;;;5037249;28;20180;-88
2023/10/12 17:01:14;;;;;;;0.30;0.30;;;;;;;;;;5037612;28;20195;-88
2023/10/12 17:03:40;;;;;;;0.30;0.30;;;;;;;;;;5038012;28;20185;-86
2023/10/12 17:06:06;;;;;;;0.30;0.30;;;;;;;;;;5038027;28;20177;-86
2023/10/12 17:08:33;;;;;;;0.20;0.20;;;;;;;;;;5037654;28;20223;-85
2023/10/12 17:11:01;;;;;;;0.37;0.37;;;;;;;;;;5008527;28;20219;-86
2023/10/12 17:13:27;;;;;;;0.30;0.30;;;;;;;;;;5015381;28;20535;-87
2023/10/12 17:15:53;;;;;;;0.30;0.30;;;;;;;;;;5014427;28;20212;-86